Time;durP1;ratioP1;P1;durP2;ratioP2;P2;SDS_P1;SDS_P2;PMS_P1;PMS_P2;Temp;Humidity;BMP_temperature;BMP_pressure;BME280_temperature;BME280_humidity;BME280_pressure;Samples;Min_cycle;Max_cycle;Signal;HPM_P1;HPM_P2
2021/06/14 00:02:00;;;;;;;9.75;2.95;;;;;;;14.90;78.19;100620.52;1781460;79;20970;-83
2021/06/14 00:04:26;;;;;;;11.12;2.70;;;;;;;14.98;77.92;100613.01;1788441;79;21022;-83
2021/06/14 00:06:52;;;;;;;8.28;2.47;;;;;;;14.81;78.06;100613.06;1772284;79;21488;-84
2021/06/14 00:09:21;;;;;;;9.60;2.62;;;;;;;14.85;78.18;100613.54;1793855;79;20885;-83
2021/06/14 00:11:47;;;;;;;9.65;2.92;;;;;;;14.89;77.73;100623.66;1754054;79;21606;-82
2021/06/14 00:14:12;;;;;;;10.05;2.70;;;;;;;14.86;76.90;100622.67;1780548;79;21575;-83
2021/06/14 00:16:38;;;;;;;10.53;2.58;;;;;;;14.71;76.56;100637.20;1776187;79;21662;-84
2021/06/14 00:19:05;;;;;;;9.93;2.55;;;;;;;14.65;76.59;100623.27;1779656;79;21162;-84
2021/06/14 00:21:31;;;;;;;9.53;2.67;;;;;;;14.67;76.18;100623.09;1786234;79;21104;-84
2021/06/14 00:23:56;;;;;;;8.63;2.70;;;;;;;14.50;76.42;100628.92;1787618;79;20878;-83
2021/06/14 00:26:22;;;;;;;9.70;2.62;;;;;;;14.52;76.42;100614.95;1779084;79;20943;-83
2021/06/14 00:28:48;;;;;;;9.75;2.62;;;;;;;14.44;76.90;100619.80;1784157;79;20864;-85
2021/06/14 00:31:14;;;;;;;8.43;2.55;;;;;;;14.36;76.75;100624.63;1778311;79;21017;-85
2021/06/14 00:33:39;;;;;;;10.25;2.58;;;;;;;14.34;76.67;100618.66;1785786;79;20894;-85
2021/06/14 00:36:06;;;;;;;9.98;2.80;;;;;;;14.24;76.63;100616.67;1777593;79;21445;-84
2021/06/14 00:38:31;;;;;;;9.28;2.50;;;;;;;14.19;76.28;100631.79;1788134;79;21125;-84
2021/06/14 00:40:57;;;;;;;8.95;2.90;;;;;;;14.16;76.53;100616.70;1783740;79;21199;-84
2021/06/14 00:43:23;;;;;;;10.10;2.60;;;;;;;14.13;76.54;100609.88;1785881;79;20913;-84
2021/06/14 00:45:50;;;;;;;8.05;2.40;;;;;;;14.18;76.21;100621.33;1786047;79;21015;-84
2021/06/14 00:48:16;;;;;;;7.30;2.40;;;;;;;14.07;76.24;100625.16;1777757;79;21335;-84
2021/06/14 00:50:53;;;;;;;10.08;2.40;;;;;;;14.02;76.31;100625.35;1778628;79;21014;-84
2021/06/14 00:53:29;;;;;;;7.85;2.40;;;;;;;13.94;76.38;100632.31;1791950;78;21044;-84
2021/06/14 00:55:55;;;;;;;8.45;2.85;;;;;;;14.02;75.98;100615.55;1784662;79;21041;-84
2021/06/14 00:58:21;;;;;;;9.13;2.92;;;;;;;13.91;76.26;100612.73;1781689;79;21077;-84
2021/06/14 01:00:47;;;;;;;8.95;2.70;;;;;;;13.91;76.06;100629.17;1787989;79;20890;-84
2021/06/14 01:03:13;;;;;;;8.88;2.52;;;;;;;13.90;76.13;100617.70;1780122;79;21084;-84
2021/06/14 01:05:46;;;;;;;8.18;2.60;;;;;;;13.88;76.29;100639.61;1775153;79;21179;-85
2021/06/14 01:08:12;;;;;;;6.80;2.30;;;;;;;13.87;76.27;100628.66;1788721;78;21999;-84
2021/06/14 01:10:39;;;;;;;10.40;2.47;;;;;;;13.85;76.43;100622.69;1784378;79;20948;-85
2021/06/14 01:13:37;;;;;;;10.43;2.53;;;;;;;13.87;76.28;100620.69;1785504;79;21366;-85
2021/06/14 01:16:39;;;;;;;11.57;2.47;;;;;;;13.87;76.30;100626.00;1710469;82;21071;-85
2021/06/14 01:19:19;;;;;;;11.03;2.50;;;;;;;13.83;76.67;100622.03;1757865;80;21268;-84
2021/06/14 01:22:08;;;;;;;14.25;2.75;;;;;;;13.81;76.77;100626.66;1757370;81;22016;-83
2021/06/14 01:24:45;;;;;;;6.83;2.45;;;;;;;13.88;76.50;100625.52;1754209;81;21030;-84
2021/06/14 01:27:31;;;;;;;7.58;2.27;;;;;;;13.82;76.72;100625.67;1719396;80;21029;-84
2021/06/14 01:29:57;;;;;;;13.17;2.63;;;;;;;13.87;76.75;100629.16;1757972;81;21073;-83
2021/06/14 01:32:23;;;;;;;9.58;2.75;;;;;;;13.78;77.04;100638.94;1752893;80;21492;-84
2021/06/14 01:34:49;;;;;;;9.50;3.10;;;;;;;13.82;76.92;100629.15;1755677;80;21153;-83
2021/06/14 01:37:14;;;;;;;8.20;2.60;;;;;;;13.96;76.56;100625.00;1757382;81;21246;-84
2021/06/14 01:39:40;;;;;;;8.20;2.55;;;;;;;14.00;76.40;100627.66;1756205;81;22027;-83
2021/06/14 01:42:07;;;;;;;11.12;2.62;;;;;;;13.95;76.46;100626.02;1756826;81;21945;-83
2021/06/14 01:44:33;;;;;;;10.35;2.70;;;;;;;13.99;76.51;100629.16;1756890;81;21085;-83
2021/06/14 01:46:59;;;;;;;14.70;3.42;;;;;;;14.00;76.34;100627.66;1756890;81;21347;-83
2021/06/14 01:49:25;;;;;;;10.30;2.87;;;;;;;13.99;76.46;100638.45;1756516;81;21013;-83
2021/06/14 01:51:51;;;;;;;7.80;2.52;;;;;;;14.03;76.44;100637.61;1754753;81;20887;-83
2021/06/14 01:54:16;;;;;;;8.23;2.80;;;;;;;13.96;76.70;100626.84;1755880;81;20880;-84
2021/06/14 01:56:46;;;;;;;7.28;2.20;;;;;;;13.98;76.62;100631.00;1756868;81;20966;-83
2021/06/14 01:59:23;;;;;;;9.10;2.80;;;;;;;13.98;76.77;100633.66;1754717;81;21233;-84
2021/06/14 02:01:49;;;;;;;7.67;2.65;;;;;;;14.00;76.69;100639.62;1753361;81;21748;-82
2021/06/14 02:04:15;;;;;;;7.33;2.55;;;;;;;14.00;76.88;100638.80;1756156;81;21182;-85
2021/06/14 02:06:43;;;;;;;9.50;3.00;;;;;;;13.94;77.10;100642.11;1757134;80;20963;-84
2021/06/14 02:09:12;;;;;;;8.33;2.67;;;;;;;14.06;76.81;100635.48;1756848;81;21567;-84
2021/06/14 02:11:42;;;;;;;9.75;2.58;;;;;;;13.96;77.21;100630.31;1747261;81;22010;-84
2021/06/14 02:14:11;;;;;;;8.13;2.60;;;;;;;13.99;77.09;100635.29;1764523;80;21981;-84
2021/06/14 02:16:37;;;;;;;9.80;2.45;;;;;;;13.99;77.18;100637.95;1764983;80;20961;-84
2021/06/14 02:19:02;;;;;;;9.78;2.80;;;;;;;14.00;77.37;100642.27;1768451;81;20899;-84
2021/06/14 02:21:28;;;;;;;7.87;2.70;;;;;;;14.03;77.14;100638.94;1768561;80;20981;-84
2021/06/14 02:23:54;;;;;;;10.85;2.98;;;;;;;14.05;77.11;100638.30;1765100;80;21095;-84
2021/06/14 02:26:19;;;;;;;11.33;3.33;;;;;;;13.98;77.32;100631.00;1765017;80;21666;-84
2021/06/14 02:28:45;;;;;;;8.05;2.42;;;;;;;14.04;77.41;100630.80;1767516;80;21087;-84
2021/06/14 02:31:11;;;;;;;9.30;2.80;;;;;;;14.13;77.10;100634.30;1765331;80;21315;-84
2021/06/14 02:33:37;;;;;;;12.07;2.75;;;;;;;14.08;77.18;100636.64;1769343;81;21041;-85
2021/06/14 02:36:04;;;;;;;9.95;2.85;;;;;;;14.13;77.11;100635.62;1767028;80;21294;-83
2021/06/14 02:38:30;;;;;;;10.80;3.10;;;;;;;14.17;77.09;100642.27;1767760;80;21030;-84
2021/06/14 02:40:56;;;;;;;9.18;2.80;;;;;;;14.22;76.93;100634.63;1768500;80;20965;-83
2021/06/14 02:43:22;;;;;;;9.93;2.35;;;;;;;14.23;76.85;100625.66;1760550;80;21084;-84
2021/06/14 02:45:49;;;;;;;10.98;2.90;;;;;;;14.26;77.04;100632.45;1762685;80;21010;-84
2021/06/14 02:48:16;;;;;;;9.20;2.75;;;;;;;14.35;76.88;100642.88;1763785;80;21060;-84
2021/06/14 02:50:42;;;;;;;12.23;2.92;;;;;;;14.32;76.80;100651.19;1746443;80;21085;-85
2021/06/14 02:53:12;;;;;;;9.85;2.98;;;;;;;14.33;76.74;100652.04;1746441;80;21034;-84
2021/06/14 02:56:08;;;;;;;9.80;2.87;;;;;;;14.34;76.91;100651.88;1765715;80;21081;-85
2021/06/14 02:58:38;;;;;;;10.30;2.87;;;;;;;14.34;76.86;100646.56;1763235;80;21113;-84
2021/06/14 03:01:05;;;;;;;9.25;2.67;;;;;;;14.41;76.75;100648.03;1765320;80;21263;-83
2021/06/14 03:03:30;;;;;;;9.13;2.55;;;;;;;14.48;76.70;100649.50;1768161;80;21050;-83
2021/06/14 03:05:57;;;;;;;8.60;2.47;;;;;;;14.42;76.76;100658.16;1765490;80;20883;-85
2021/06/14 03:08:22;;;;;;;10.93;3.30;;;;;;;14.46;76.86;100656.83;1766717;80;21182;-85
2021/06/14 03:10:48;;;;;;;10.82;2.58;;;;;;;14.42;76.84;100657.67;1757512;80;21214;-85
2021/06/14 03:13:14;;;;;;;9.43;2.55;;;;;;;14.55;76.57;100659.80;1766575;80;22107;-85
2021/06/14 03:15:40;;;;;;;9.03;2.50;;;;;;;14.64;76.26;100660.14;1763788;80;21060;-85
2021/06/14 03:18:06;;;;;;;8.45;2.50;;;;;;;14.75;76.17;100666.11;1798131;79;20865;-84
2021/06/14 03:20:32;;;;;;;11.33;2.58;;;;;;;14.85;75.88;100666.72;1776247;79;20938;-84
2021/06/14 03:22:58;;;;;;;11.45;2.98;;;;;;;14.97;75.41;100668.00;1786862;79;21094;-84
2021/06/14 03:25:23;;;;;;;12.10;2.83;;;;;;;14.92;75.08;100661.56;1770033;79;20936;-86
2021/06/14 03:27:50;;;;;;;8.30;2.62;;;;;;;14.91;75.01;100670.02;1785006;79;21126;-86
2021/06/14 03:30:18;;;;;;;7.92;2.58;;;;;;;14.67;75.42;100669.61;1800691;79;21546;-85
2021/06/14 03:32:44;;;;;;;9.25;2.83;;;;;;;14.63;75.64;100670.95;1790380;79;21110;-84
2021/06/14 03:35:17;;;;;;;12.25;2.87;;;;;;;14.68;75.61;100673.91;1796855;79;21005;-84
2021/06/14 03:37:43;;;;;;;9.13;2.55;;;;;;;14.55;76.19;100679.73;1794391;77;21955;-85
2021/06/14 03:40:12;;;;;;;9.85;2.67;;;;;;;14.71;75.77;100677.08;1782114;79;21627;-86
2021/06/14 03:42:38;;;;;;;11.10;3.15;;;;;;;14.57;76.20;100681.71;1772700;79;21067;-84
2021/06/14 03:45:06;;;;;;;10.20;2.70;;;;;;;14.55;76.48;100683.72;1787191;79;21839;-85
2021/06/14 03:47:31;;;;;;;;;;;;;;;14.58;76.36;100676.73;1772748;79;21040;-86
2021/06/14 03:49:57;;;;;;;8.70;2.72;;;;;;;14.59;76.45;100678.41;1783808;79;22356;-84
2021/06/14 03:52:23;;;;;;;6.78;2.62;;;;;;;14.69;75.97;100681.72;1772527;79;21059;-85
2021/06/14 03:54:48;;;;;;;10.13;3.22;;;;;;;14.74;75.99;100680.39;1795702;79;20897;-85
2021/06/14 03:57:14;;;;;;;9.18;2.98;;;;;;;14.84;75.94;100675.72;1783523;79;20886;-85
2021/06/14 03:59:40;;;;;;;12.47;3.15;;;;;;;14.92;75.63;100688.98;1769664;79;21265;-85
2021/06/14 04:02:06;;;;;;;7.20;2.45;;;;;;;15.02;75.58;100682.97;1783023;79;21267;-85
2021/06/14 04:04:47;;;;;;;10.43;2.70;;;;;;;15.11;75.07;100689.58;1784118;79;21344;-86
2021/06/14 04:06:59;;;;;;;9.55;2.60;;;;;;;15.20;74.90;100689.88;1770661;79;21013;-86
2021/06/14 04:09:25;;;;;;;8.88;3.10;;;;;;;15.22;74.89;100691.84;1784086;79;20925;-85
2021/06/14 04:11:53;;;;;;;10.58;2.80;;;;;;;15.36;74.77;100692.44;1801190;79;20857;-86
2021/06/14 04:14:18;;;;;;;7.85;2.70;;;;;;;15.31;74.76;100694.80;1768110;79;21033;-85
2021/06/14 04:16:44;;;;;;;10.63;2.55;;;;;;;15.43;74.77;100692.08;1773587;79;20864;-82
2021/06/14 04:19:10;;;;;;;10.20;2.47;;;;;;;15.44;74.74;100702.21;1772062;79;20921;-84
2021/06/14 04:21:35;;;;;;;9.65;2.95;;;;;;;15.51;74.58;100701.03;1785427;80;20874;-84
2021/06/14 04:24:01;;;;;;;11.90;2.90;;;;;;;15.46;74.29;100709.55;1784667;79;20887;-84
2021/06/14 04:26:27;;;;;;;10.50;2.90;;;;;;;15.48;74.42;100697.39;1765914;79;21040;-84
2021/06/14 04:28:53;;;;;;;11.18;2.47;;;;;;;15.52;73.94;100690.69;1786465;79;21066;-84
2021/06/14 04:31:19;;;;;;;11.12;2.90;;;;;;;15.57;73.99;100688.35;1763426;79;20974;-85
2021/06/14 04:33:44;;;;;;;10.55;3.10;;;;;;;15.56;73.87;100686.17;1774694;79;21205;-87
2021/06/14 04:36:10;;;;;;;8.98;2.77;;;;;;;15.46;74.02;100694.05;1770066;79;21164;-87
2021/06/14 04:38:36;;;;;;;8.53;2.58;;;;;;;15.54;74.06;100680.72;1782001;79;20960;-83
2021/06/14 04:41:02;;;;;;;9.50;2.55;;;;;;;15.67;73.75;100692.93;1780054;79;21839;-86
2021/06/14 04:43:28;;;;;;;8.20;2.70;;;;;;;15.85;73.52;100690.50;1780971;79;21076;-85
2021/06/14 04:45:53;;;;;;;8.88;2.50;;;;;;;15.92;72.94;100699.45;1785656;79;20962;-84
2021/06/14 04:48:19;;;;;;;10.08;2.47;;;;;;;15.94;73.03;100696.10;1762096;79;21682;-85
2021/06/14 04:50:45;;;;;;;7.78;2.30;;;;;;;16.09;73.06;100698.31;1781452;79;21175;-86
2021/06/14 04:53:11;;;;;;;9.73;2.45;;;;;;;16.12;71.55;100693.14;1780835;79;21028;-87
2021/06/14 04:55:37;;;;;;;10.45;2.90;;;;;;;16.26;71.38;100692.34;1781482;79;20973;-86
2021/06/14 04:58:04;;;;;;;8.35;2.40;;;;;;;16.39;70.86;100700.23;1780298;79;20859;-84
2021/06/14 05:00:30;;;;;;;9.38;2.37;;;;;;;16.61;70.73;100704.70;1782476;78;21235;-84
2021/06/14 05:02:56;;;;;;;6.72;2.20;;;;;;;16.75;69.91;100704.39;1784719;80;21163;-87
2021/06/14 05:05:22;;;;;;;9.95;2.30;;;;;;;16.93;68.62;100701.37;1790617;79;21080;-85
2021/06/14 05:07:47;;;;;;;6.90;2.27;;;;;;;17.04;67.48;100704.93;1786707;79;20971;-81
2021/06/14 05:10:13;;;;;;;7.85;2.30;;;;;;;17.05;67.60;100712.42;1773675;79;20887;-83
2021/06/14 05:12:39;;;;;;;8.55;2.62;;;;;;;17.08;67.23;100713.38;1766872;79;21429;-82
2021/06/14 05:15:06;;;;;;;8.70;2.45;;;;;;;17.00;67.64;100706.81;1786535;79;21036;-82
2021/06/14 05:17:32;;;;;;;6.55;2.10;;;;;;;17.02;67.25;100706.94;1777819;80;21630;-84
2021/06/14 05:19:57;;;;;;;10.23;2.27;;;;;;;17.06;66.33;100714.08;1781647;79;20889;-82
2021/06/14 05:22:23;;;;;;;11.08;2.45;;;;;;;17.08;67.31;100712.05;1785211;79;20843;-84
2021/06/14 05:24:49;;;;;;;8.95;2.40;;;;;;;17.13;67.03;100701.64;1784693;79;21100;-81
2021/06/14 05:27:15;;;;;;;6.08;2.05;;;;;;;17.24;65.92;100695.00;1781670;79;21807;-82
2021/06/14 05:29:41;;;;;;;6.78;2.10;;;;;;;17.31;65.39;100697.73;1772466;79;20879;-85
2021/06/14 05:32:07;;;;;;;7.85;2.42;;;;;;;17.28;64.94;100692.28;1776430;79;20974;-82
2021/06/14 05:34:33;;;;;;;12.37;2.42;;;;;;;17.33;65.38;100695.73;1799157;79;20982;-79
2021/06/14 05:36:59;;;;;;;6.40;1.72;;;;;;;17.39;65.21;100700.32;1777489;79;21171;-84
2021/06/14 05:39:25;;;;;;;6.47;1.95;;;;;;;17.42;63.91;100697.28;1785235;79;20934;-81
2021/06/14 05:41:51;;;;;;;8.13;2.40;;;;;;;17.45;64.14;100702.73;1787906;79;21202;-80
2021/06/14 05:44:16;;;;;;;7.85;2.30;;;;;;;17.42;63.64;100697.28;1786954;79;21508;-82
2021/06/14 05:46:42;;;;;;;10.05;2.05;;;;;;;17.42;63.81;100695.94;1774779;79;21627;-83
2021/06/14 05:49:08;;;;;;;6.03;2.10;;;;;;;17.34;64.15;100692.02;1763114;79;21081;-83
2021/06/14 05:51:34;;;;;;;5.85;2.00;;;;;;;17.43;64.41;100698.91;1795430;79;21930;-84
2021/06/14 05:54:00;;;;;;;6.40;1.98;;;;;;;17.41;63.15;100702.28;1776950;79;21458;-83
2021/06/14 05:56:26;;;;;;;5.53;1.80;;;;;;;17.38;63.05;100714.67;1773284;80;20949;-85
2021/06/14 05:58:51;;;;;;;4.50;1.80;;;;;;;17.50;62.38;100709.69;1793815;79;20842;-81
2021/06/14 06:01:17;;;;;;;5.92;1.92;;;;;;;17.48;62.52;100714.37;1778712;79;20903;-84
2021/06/14 06:03:43;;;;;;;4.47;1.70;;;;;;;17.50;62.89;100719.85;1774341;79;21011;-83
2021/06/14 06:06:09;;;;;;;5.00;1.85;;;;;;;17.56;62.96;100716.44;1775777;79;20859;-82
2021/06/14 06:08:35;;;;;;;7.95;2.12;;;;;;;17.47;62.03;100708.21;1780738;79;21037;-80
2021/06/14 06:11:01;;;;;;;5.80;1.90;;;;;;;17.55;62.50;100714.77;1784224;79;21084;-78
2021/06/14 06:13:26;;;;;;;4.05;1.60;;;;;;;17.46;62.04;100722.56;1769251;79;21155;-81
2021/06/14 06:15:52;;;;;;;5.40;1.77;;;;;;;17.52;62.00;100720.48;1783922;80;21043;-84
2021/06/14 06:18:18;;;;;;;4.35;1.80;;;;;;;17.54;61.04;100718.96;1771359;79;21103;-82
2021/06/14 06:20:44;;;;;;;5.00;1.80;;;;;;;17.65;61.14;100710.97;1789322;79;21012;-83
2021/06/14 06:23:10;;;;;;;4.20;1.67;;;;;;;17.69;60.77;100708.25;1794385;79;21168;-83
2021/06/14 06:25:35;;;;;;;7.28;2.12;;;;;;;17.74;60.62;100708.01;1781210;79;21121;-81
2021/06/14 06:28:01;;;;;;;5.80;2.00;;;;;;;17.91;61.03;100705.11;1770362;79;21642;-82
2021/06/14 06:30:29;;;;;;;5.10;1.85;;;;;;;17.97;61.04;100710.20;1783494;80;20921;-79
2021/06/14 06:32:55;;;;;;;5.22;1.92;;;;;;;17.99;60.09;100705.48;1783693;80;21029;-79
2021/06/14 06:35:21;;;;;;;6.30;2.10;;;;;;;18.10;60.16;100710.31;1777587;80;20945;-80
2021/06/14 06:37:47;;;;;;;4.28;1.87;;;;;;;18.36;59.88;100708.37;1780476;80;21138;-80
2021/06/14 06:40:13;;;;;;;3.90;1.75;;;;;;;18.40;58.10;100716.86;1784391;80;21999;-79
2021/06/14 06:42:39;;;;;;;5.33;1.90;;;;;;;18.51;56.93;100706.95;1783035;80;21059;-79
2021/06/14 06:45:07;;;;;;;5.03;1.87;;;;;;;18.62;56.52;100714.43;1784376;80;20926;-79
2021/06/14 06:47:33;;;;;;;4.05;1.30;;;;;;;18.71;56.30;100712.44;1780304;79;21028;-80
2021/06/14 06:49:59;;;;;;;5.17;1.50;;;;;;;18.78;54.49;100706.63;1795673;79;21300;-80
2021/06/14 06:52:25;;;;;;;6.05;1.72;;;;;;;18.80;54.89;100705.09;1791244;79;21078;-82
2021/06/14 06:54:50;;;;;;;4.60;1.57;;;;;;;18.76;54.12;100678.41;1771459;79;20962;-83
2021/06/14 06:57:16;;;;;;;4.80;1.60;;;;;;;18.76;54.12;100678.41;1762836;79;20963;-80
2021/06/14 06:59:43;;;;;;;3.92;1.37;;;;;;;18.93;54.39;100701.69;1781626;80;21841;-82
2021/06/14 07:02:09;;;;;;;5.58;1.60;;;;;;;18.94;52.98;100701.50;1784564;79;21581;-81
2021/06/14 07:04:34;;;;;;;4.70;1.60;;;;;;;18.93;52.56;100706.52;1776431;79;21881;-82
2021/06/14 07:07:00;;;;;;;3.58;1.30;;;;;;;19.01;51.81;100702.34;1792340;79;22010;-78
2021/06/14 07:09:29;;;;;;;5.67;1.50;;;;;;;19.00;50.73;100706.06;1782242;79;20981;-80
2021/06/14 07:11:56;;;;;;;3.72;1.10;;;;;;;19.06;50.04;100708.95;1784098;79;21001;-80
2021/06/14 07:14:23;;;;;;;2.45;1.05;;;;;;;19.06;48.85;100703.61;1769754;79;21009;-78
2021/06/14 07:16:49;;;;;;;2.70;1.35;;;;;;;19.11;49.11;100701.15;1775575;79;21160;-80
2021/06/14 07:19:14;;;;;;;3.87;1.40;;;;;;;19.19;48.66;100711.70;1795766;79;20877;-80
2021/06/14 07:21:40;;;;;;;4.65;1.50;;;;;;;19.16;47.44;100720.14;1787662;79;20942;-78
2021/06/14 07:24:07;;;;;;;4.42;1.22;;;;;;;19.26;47.29;100709.86;1768312;79;21105;-81
2021/06/14 07:26:33;;;;;;;4.28;1.30;;;;;;;19.16;46.69;100714.78;1777262;80;21081;-80
2021/06/14 07:28:59;;;;;;;2.70;1.40;;;;;;;19.18;46.81;100714.06;1753562;80;21113;-80
2021/06/14 07:31:25;;;;;;;3.77;1.20;;;;;;;19.14;46.42;100712.80;1781619;80;20957;-79
2021/06/14 07:33:51;;;;;;;3.50;1.30;;;;;;;19.14;46.18;100711.45;1786295;79;21065;-80
2021/06/14 07:36:17;;;;;;;2.95;1.30;;;;;;;19.22;46.60;100719.34;1799504;79;21151;-79
2021/06/14 07:38:42;;;;;;;4.75;1.40;;;;;;;19.27;46.65;100716.88;1773272;79;21689;-81
2021/06/14 07:41:08;;;;;;;4.95;1.40;;;;;;;19.32;46.50;100718.97;1785353;79;21791;-84
2021/06/14 07:43:34;;;;;;;2.33;1.30;;;;;;;19.34;47.65;100712.39;1773164;79;20949;-84
2021/06/14 07:46:00;;;;;;;4.12;1.40;;;;;;;19.38;45.88;100716.30;1791259;79;21676;-85
2021/06/14 07:48:25;;;;;;;4.60;1.40;;;;;;;19.21;45.61;100698.94;1793826;79;21914;-82
2021/06/14 07:50:53;;;;;;;3.33;1.40;;;;;;;19.21;45.61;100698.94;1783857;80;20965;-82
2021/06/14 07:53:18;;;;;;;4.17;1.27;;;;;;;19.12;45.90;100708.16;1783000;80;21125;-80
2021/06/14 07:55:44;;;;;;;6.85;1.50;;;;;;;19.17;46.58;100713.25;1768271;79;20871;-82
2021/06/14 07:58:10;;;;;;;4.03;1.25;;;;;;;19.28;46.38;100717.21;1778819;79;20886;-83
2021/06/14 08:00:37;;;;;;;3.83;1.22;;;;;;;19.31;46.85;100734.22;1783941;80;20921;-82
2021/06/14 08:03:03;;;;;;;2.25;1.20;;;;;;;19.18;46.78;100715.40;1778898;79;27039;-84
2021/06/14 08:05:29;;;;;;;3.60;1.70;;;;;;;19.28;47.06;100719.89;1784131;80;20997;-81
2021/06/14 08:07:55;;;;;;;4.20;1.30;;;;;;;19.51;46.36;100719.56;1776993;79;21115;-83
2021/06/14 08:10:21;;;;;;;3.47;1.50;;;;;;;19.72;45.86;100719.09;1782903;80;20990;-84
2021/06/14 08:12:51;;;;;;;2.30;1.27;;;;;;;20.00;45.34;100708.77;1785796;80;21045;-84
2021/06/14 08:15:23;;;;;;;4.28;1.50;;;;;;;19.97;45.35;100705.97;1784074;80;21069;-83
2021/06/14 08:17:49;;;;;;;3.08;1.30;;;;;;;19.97;45.69;100705.16;1784875;80;21162;-85
2021/06/14 08:20:33;;;;;;;3.33;1.30;;;;;;;20.16;45.28;100700.83;1783410;80;21009;-83
2021/06/14 08:25:32;;;;;;;4.00;1.50;;;;;;;19.82;45.90;100718.73;1779639;79;21025;-84
2021/06/14 08:27:58;;;;;;;4.55;1.60;;;;;;;19.78;45.57;100708.09;1784239;78;21048;-82
2021/06/14 08:30:25;;;;;;;4.70;1.45;;;;;;;19.83;46.15;100704.31;1792429;79;21331;-82
2021/06/14 08:32:51;;;;;;;2.62;1.30;;;;;;;19.76;45.52;100708.79;1774342;79;21092;-81
2021/06/14 08:35:18;;;;;;;2.90;1.40;;;;;;;19.61;45.63;100718.33;1784457;80;21740;-83
2021/06/14 08:37:46;;;;;;;2.62;1.20;;;;;;;19.55;46.20;100714.62;1775787;79;21096;-84
2021/06/14 08:40:13;;;;;;;4.65;1.22;;;;;;;19.76;47.11;100706.11;1786403;79;22057;-80
2021/06/14 08:42:39;;;;;;;2.25;1.30;;;;;;;19.79;46.43;100707.08;1767614;79;21134;-83
2021/06/14 08:45:08;;;;;;;3.02;1.20;;;;;;;19.90;46.50;100702.45;1779199;79;20949;-82
2021/06/14 08:47:36;;;;;;;4.87;1.25;;;;;;;19.85;45.69;100706.27;1774396;79;21591;-83
2021/06/14 08:50:02;;;;;;;2.05;1.20;;;;;;;19.78;45.36;100702.23;1787457;79;21023;-83
2021/06/14 08:52:28;;;;;;;2.35;1.20;;;;;;;19.84;44.72;100705.94;1768932;79;20983;-81
2021/06/14 08:54:54;;;;;;;2.45;1.30;;;;;;;19.84;44.39;100703.27;1764548;81;21916;-83
2021/06/14 08:57:20;;;;;;;2.65;1.07;;;;;;;19.90;44.49;100718.53;1762682;80;20871;-83
2021/06/14 08:59:45;;;;;;;3.92;1.30;;;;;;;19.73;43.95;100718.89;1789910;79;21521;-81
2021/06/14 09:02:11;;;;;;;2.37;1.10;;;;;;;19.88;45.28;100712.03;1782676;79;20850;-86
2021/06/14 09:04:37;;;;;;;4.80;1.20;;;;;;;19.92;43.93;100713.81;1782826;79;20864;-85
2021/06/14 09:07:03;;;;;;;4.67;1.30;;;;;;;19.82;44.31;100702.65;1762939;79;20947;-82
2021/06/14 09:09:30;;;;;;;3.47;1.40;;;;;;;19.98;44.90;100694.23;1785636;79;20960;-83
2021/06/14 09:11:56;;;;;;;3.40;1.65;;;;;;;20.15;45.60;100695.14;1784621;79;26550;-86
2021/06/14 09:14:24;;;;;;;2.83;1.50;;;;;;;20.23;45.11;100704.35;1798161;79;21104;-83
2021/06/14 09:16:51;;;;;;;3.37;1.07;;;;;;;20.28;44.92;100707.75;1787730;79;21725;-85
2021/06/14 09:19:29;;;;;;;2.87;1.20;;;;;;;20.29;44.27;100707.55;1786321;79;21336;-86
2021/06/14 09:21:56;;;;;;;2.72;1.30;;;;;;;20.33;44.15;100702.59;1756094;79;21569;-81
2021/06/14 09:24:26;;;;;;;2.02;1.07;;;;;;;20.29;44.91;100699.50;1785161;79;21041;-81
2021/06/14 09:26:52;;;;;;;2.22;1.20;;;;;;;20.34;44.07;100697.02;1798858;79;21045;-84
2021/06/14 09:29:27;;;;;;;3.92;1.40;;;;;;;20.44;44.04;100693.38;1779254;79;21138;-81
2021/06/14 09:32:00;;;;;;;3.50;1.30;;;;;;;20.54;43.80;100690.29;1766552;79;21564;-80
2021/06/14 09:34:37;;;;;;;3.15;1.20;;;;;;;20.47;43.60;100700.19;1777939;80;21010;-84
2021/06/14 09:37:09;;;;;;;3.85;1.25;;;;;;;20.59;43.51;100685.11;1785601;79;21015;-83
2021/06/14 09:39:43;;;;;;;3.12;1.40;;;;;;;20.65;44.07;100691.55;1775057;79;20993;-81
2021/06/14 09:42:19;;;;;;;3.92;1.30;;;;;;;20.62;44.00;100692.74;1776834;79;21007;-82
2021/06/14 09:44:46;;;;;;;2.55;1.60;;;;;;;20.54;43.57;100689.44;1766211;79;21095;-82
2021/06/14 09:47:12;;;;;;;2.85;1.60;;;;;;;20.79;43.65;100698.52;1786875;79;21075;-82
2021/06/14 09:49:40;;;;;;;3.85;1.50;;;;;;;20.90;43.27;100698.92;1781380;79;21017;-81
2021/06/14 09:52:06;;;;;;;4.80;1.50;;;;;;;20.75;42.66;100691.91;1769263;79;21794;-81
2021/06/14 09:54:34;;;;;;;3.30;1.40;;;;;;;20.78;43.37;100688.81;1792930;79;21058;-81
2021/06/14 09:57:03;;;;;;;3.00;1.32;;;;;;;20.70;42.39;100690.91;1774351;79;21316;-80
2021/06/14 09:59:40;;;;;;;3.83;1.50;;;;;;;20.92;43.54;100686.09;1794771;79;21060;-80
2021/06/14 10:02:18;;;;;;;3.80;1.60;;;;;;;21.04;43.68;100686.28;1776986;79;21498;-80
2021/06/14 10:04:45;;;;;;;3.37;1.40;;;;;;;21.13;43.31;100691.19;1783793;80;21320;-79
2021/06/14 10:07:13;;;;;;;4.47;1.50;;;;;;;21.25;43.38;100694.55;1745925;80;38487;-82
2021/06/14 10:09:44;;;;;;;5.50;1.32;;;;;;;21.11;42.65;100687.06;1792222;79;21152;-84
2021/06/14 10:12:25;;;;;;;2.75;1.20;;;;;;;21.26;43.15;100685.45;1789867;79;20973;-83
2021/06/14 10:15:02;;;;;;;2.42;1.20;;;;;;;21.41;43.51;100679.28;1777514;79;21006;-81
2021/06/14 10:17:37;;;;;;;3.25;1.37;;;;;;;21.48;43.03;100678.72;1777846;79;21582;-81
2021/06/14 10:20:26;;;;;;;4.70;1.75;;;;;;;21.62;43.14;100686.73;1770716;79;21089;-80
2021/06/14 10:22:56;;;;;;;3.67;1.50;;;;;;;21.64;43.26;100669.87;1780437;80;21038;-80
2021/06/14 10:25:22;;;;;;;3.83;1.37;;;;;;;21.76;42.84;100669.48;1783611;79;21049;-81
2021/06/14 10:27:48;;;;;;;2.85;1.20;;;;;;;21.80;42.60;100659.95;1788365;79;21325;-80
2021/06/14 10:30:16;;;;;;;3.30;1.30;;;;;;;21.79;42.27;100669.05;1781382;79;20874;-82
2021/06/14 10:32:43;;;;;;;2.72;1.30;;;;;;;21.95;42.43;100678.97;1784588;80;21112;-81
2021/06/14 10:35:11;;;;;;;2.58;1.40;;;;;;;22.07;42.15;100665.11;1773248;79;21082;-80
2021/06/14 10:37:50;;;;;;;4.58;1.40;;;;;;;22.09;42.39;100675.12;1769814;79;21525;-81
2021/06/14 10:40:19;;;;;;;3.67;1.30;;;;;;;22.11;42.35;100677.09;1781954;80;20921;-81
2021/06/14 10:42:46;;;;;;;3.25;1.30;;;;;;;22.11;41.79;100676.24;1783319;80;21088;-80
2021/06/14 10:45:19;;;;;;;3.33;1.40;;;;;;;22.07;41.33;100662.42;1785772;79;21093;-79
2021/06/14 10:47:47;;;;;;;2.30;1.27;;;;;;;22.15;41.60;100668.86;1778385;80;21082;-81
2021/06/14 10:50:17;;;;;;;;;;;;;;;22.20;42.03;100677.11;1749853;80;21021;-82
2021/06/14 10:52:44;;;;;;;1.75;1.10;;;;;;;22.11;41.47;100667.67;1786090;79;20356;-78
2021/06/14 10:55:16;;;;;;;2.62;1.22;;;;;;;22.07;41.40;100664.30;1798124;79;21047;-79
2021/06/14 10:57:43;;;;;;;5.12;1.60;;;;;;;22.18;42.25;100660.35;1790107;79;21052;-79
2021/06/14 11:00:32;;;;;;;1.92;1.10;;;;;;;22.52;41.02;100658.20;1780241;78;21897;-79
2021/06/14 11:03:03;;;;;;;2.77;1.30;;;;;;;22.76;40.04;100655.66;1775287;80;21118;-77
2021/06/14 11:05:46;;;;;;;2.08;1.00;;;;;;;22.86;40.15;100650.58;1764373;79;21020;-79
2021/06/14 11:08:22;;;;;;;5.08;1.27;;;;;;;23.04;39.36;100647.56;1775311;80;21184;-78
2021/06/14 11:11:07;;;;;;;3.22;1.30;;;;;;;23.12;40.17;100652.16;1787557;79;21036;-78
2021/06/14 11:13:33;;;;;;;2.70;1.17;;;;;;;23.37;39.92;100653.06;1782679;78;21133;-81
2021/06/14 11:16:01;;;;;;;2.85;1.15;;;;;;;23.26;39.55;100647.42;1773113;80;20981;-77
2021/06/14 11:18:30;;;;;;;6.62;1.20;;;;;;;23.17;39.40;100646.09;1775752;80;21719;-79
2021/06/14 11:21:12;;;;;;;4.72;1.25;;;;;;;23.14;39.07;100646.55;1778268;79;21229;-78
2021/06/14 11:23:39;;;;;;;2.10;1.07;;;;;;;22.99;39.55;100638.00;1781495;79;21046;-77
2021/06/14 11:26:06;;;;;;;2.33;1.00;;;;;;;23.09;39.24;100636.98;1777900;80;21838;-78
2021/06/14 11:28:40;;;;;;;3.30;1.15;;;;;;;23.23;39.54;100630.89;1778331;80;20991;-77
2021/06/14 11:31:28;;;;;;;3.22;1.30;;;;;;;23.10;39.33;100641.30;1771551;80;21066;-78